If you wish to contribute or participate in the discussions about articles you are invited to join SKYbrary as a registered user

 Actions

Tabatinga International Airport

From SKYbrary Wiki

SBTT
Airport
ICAO: SBTT – IATA: TBT
Summary
Name Tabatinga International Airport
Region South America and Caribbean
Territory Brazil BR.gif
Location Tabatinga, Amazonas
Serving Tabatinga
Elevation 85.039 m
279 ft85.039 m
Coordinates 4° 15' 24.98" S, 69° 56' 16.01" W
Runways
Designator Length Width Surface ROPS
12/30 2150 m7,053.806 ft
30 m98.425 ft
ASP /


METAR
Observation SBTT 181600Z 31003KT CAVOK 30/24 Q1010
Station Tabatinga
Date/Time 18 September 2019 16:00:00
Wind direction 310°
Wind speed 03 kts
Lowest cloud amount clouds and visibility OK
Temperature 30°C
Dew point 24°C
Humidity 70%
QNH 1010 hPa
Weather condition n/a

Tabatinga International Airport (IATA: TBT, ICAO: SBTT) is the airport serving Tabatinga, Brazil, located by the border with Colombia and Peru.

Climatology

Tropical rainforest climate (Köppen climate classification Af)

Maps

Terrain

Loading map...

Airport Layout

Loading map...


Accidents & Serious Incidents at or in vicinity of SBTT

None on SKYbrary